Airport ID:K00U
Update Time (UTC):16/04/2021 11:28
Wind Speed (Knots):3
Wind Direction (Magnetic):250
Temperature (°C):1
Dew Point (°C):-1
Humidity (%):89
Altimeter (inHg):30.28
Density Altitude (Feet):
Visibility:10+
Clouds (Hundreds of feet):BKN023 OVC029
Present Weather:
METAR:METAR K00U 161125Z AUTO 00000KT 10SM BKN023 OVC029 01/M01 A3028 RMK A01

The data displayed is for advisory purposes only and is not to be used for flight planning or operations.